Time,TemperatureF,DewpointF,PressureIn,WindDirection,WindDirectionDegrees,WindSpeedMPH,WindSpeedGustMPH,Humidity,HourlyPrecipIn,Conditions,Clouds,dailyrainin,SoftwareType,DateUTC
2013-08-24 19:50:00,74.2,58.0,30.24,SE,135,0.0,5.0,57,0.00,,CLR,0.00,VWS V14.00,2013-08-24 23:50:00,
2013-08-24 20:06:00,74.2,58.0,30.24,SE,135,0.0,5.0,57,0.00,,CLR,0.00,VWS V14.00,2013-08-25 00:06:00,
2013-08-24 20:11:00,71.9,56.8,30.25,SE,134,0.0,0.0,59,0.00,,CLR,0.00,VWS V14.00,2013-08-25 00:11:00,
2013-08-24 20:16:00,71.4,56.8,30.25,SE,133,0.0,1.0,60,0.00,,CLR,0.00,VWS V14.00,2013-08-25 00:16:00,
2013-08-24 20:21:00,71.0,56.9,30.25,SE,133,0.0,0.0,61,0.00,,CLR,0.00,VWS V14.00,2013-08-25 00:21:00,
2013-08-24 20:26:00,70.6,57.0,30.25,SE,133,0.0,0.0,62,0.00,,CLR,0.00,VWS V14.00,2013-08-25 00:26:00,
2013-08-24 20:31:00,70.2,57.0,30.25,SE,133,0.0,0.0,63,0.00,,CLR,0.00,VWS V14.00,2013-08-25 00:31:00,
2013-08-24 20:36:00,69.7,57.0,30.24,SE,133,0.0,0.0,64,0.00,,CLR,0.00,VWS V14.00,2013-08-25 00:36:00,
2013-08-24 20:41:00,69.3,57.0,30.25,SE,133,0.0,0.0,65,0.00,,CLR,0.00,VWS V14.00,2013-08-25 00:41:00,
2013-08-24 20:46:00,68.9,56.7,30.25,ESE,110,0.0,5.0,65,0.00,,CLR,0.00,VWS V14.00,2013-08-25 00:46:00,
2013-08-24 20:51:00,68.8,57.0,30.25,ENE,68,0.0,4.0,66,0.00,,CLR,0.00,VWS V14.00,2013-08-25 00:51:00,
2013-08-24 20:56:00,68.8,57.0,30.25,ENE,69,0.0,4.0,66,0.00,,CLR,0.00,VWS V14.00,2013-08-25 00:56:00,
2013-08-24 21:01:00,68.8,57.4,30.25,East,96,0.0,3.0,67,0.00,,CLR,0.00,VWS V14.00,2013-08-25 01:01:00,
2013-08-24 21:06:00,68.7,57.7,30.25,East,96,0.0,3.0,68,0.00,,CLR,0.00,VWS V14.00,2013-08-25 01:06:00,
2013-08-24 21:11:00,68.7,57.7,30.25,ESE,122,0.0,0.0,68,0.00,,CLR,0.00,VWS V14.00,2013-08-25 01:11:00,
2013-08-24 21:16:00,68.6,57.6,30.26,ESE,123,0.0,1.0,68,0.00,,CLR,0.00,VWS V14.00,2013-08-25 01:16:00,
2013-08-24 21:21:00,68.4,57.8,30.25,ESE,123,0.0,0.0,69,0.00,,CLR,0.00,VWS V14.00,2013-08-25 01:21:00,
2013-08-24 21:26:00,68.3,58.2,30.26,ESE,103,0.0,5.0,70,0.00,,CLR,0.00,VWS V14.00,2013-08-25 01:26:00,
2013-08-24 21:31:00,68.2,58.0,30.26,SE,132,0.0,0.0,70,0.00,,CLR,0.00,VWS V14.00,2013-08-25 01:31:00,
2013-08-24 21:36:00,68.1,58.3,30.26,ESE,105,0.0,2.0,71,0.00,,CLR,0.00,VWS V14.00,2013-08-25 01:36:00,
2013-08-24 21:41:00,68.0,58.3,30.26,East,90,0.0,4.0,71,0.00,,CLR,0.00,VWS V14.00,2013-08-25 01:41:00,
2013-08-24 21:46:00,67.9,58.5,30.26,ESE,123,0.0,4.0,72,0.00,,CLR,0.00,VWS V14.00,2013-08-25 01:46:00,
2013-08-24 21:51:00,67.9,58.5,30.26,ESE,111,0.0,0.0,72,0.00,,CLR,0.00,VWS V14.00,2013-08-25 01:51:00,
2013-08-24 21:55:00,67.7,58.4,30.26,ESE,111,0.0,0.0,72,0.00,,CLR,0.00,VWS V14.00,2013-08-25 01:55:00,
2013-08-24 22:00:00,67.5,58.5,30.26,ESE,111,0.0,0.0,73,0.00,,CLR,0.00,VWS V14.00,2013-08-25 02:00:00,
2013-08-24 22:05:00,67.3,58.4,30.26,ESE,112,1.0,2.0,73,0.00,,CLR,0.00,VWS V14.00,2013-08-25 02:05:00,
2013-08-24 22:10:00,66.9,58.3,30.26,ESE,112,0.0,1.0,74,0.00,,CLR,0.00,VWS V14.00,2013-08-25 02:10:00,
2013-08-24 22:15:00,66.6,58.4,30.26,ESE,111,0.0,1.0,75,0.00,,CLR,0.00,VWS V14.00,2013-08-25 02:15:00,
2013-08-24 22:20:00,66.2,58.4,30.26,ESE,112,0.0,0.0,76,0.00,,CLR,0.00,VWS V14.00,2013-08-25 02:20:00,
2013-08-24 22:25:00,65.8,58.0,30.26,ESE,112,0.0,0.0,76,0.00,,CLR,0.00,VWS V14.00,2013-08-25 02:25:00,
2013-08-24 22:30:00,65.4,58.0,30.26,ESE,111,0.0,0.0,77,0.00,,CLR,0.00,VWS V14.00,2013-08-25 02:30:00,
2013-08-24 22:35:00,65.1,58.1,30.26,ESE,112,0.0,0.0,78,0.00,,CLR,0.00,VWS V14.00,2013-08-25 02:35:00,
2013-08-24 22:40:00,64.8,57.8,30.26,ESE,112,0.0,0.0,78,0.00,,CLR,0.00,VWS V14.00,2013-08-25 02:40:00,
2013-08-24 22:45:00,64.5,57.8,30.25,ESE,112,0.0,0.0,79,0.00,,CLR,0.00,VWS V14.00,2013-08-25 02:45:00,
2013-08-24 22:50:00,64.1,57.8,30.26,SE,140,0.0,0.0,80,0.00,,CLR,0.00,VWS V14.00,2013-08-25 02:50:00,
2013-08-24 22:55:00,63.9,58.0,30.26,SE,140,0.0,0.0,81,0.00,,CLR,0.00,VWS V14.00,2013-08-25 02:55:00,
2013-08-24 23:00:00,63.6,57.7,30.26,SE,140,0.0,0.0,81,0.00,,CLR,0.00,VWS V14.00,2013-08-25 03:00:00,
2013-08-24 23:05:00,63.4,57.8,30.25,SE,140,0.0,0.0,82,0.00,,CLR,0.00,VWS V14.00,2013-08-25 03:05:00,
2013-08-24 23:10:00,63.4,58.2,30.26,SE,140,0.0,0.0,83,0.00,,CLR,0.00,VWS V14.00,2013-08-25 03:10:00,
2013-08-24 23:15:00,63.5,58.2,30.26,SE,140,0.0,0.0,83,0.00,,CLR,0.00,VWS V14.00,2013-08-25 03:15:00,
2013-08-24 23:20:00,63.6,58.7,30.26,SE,140,0.0,0.0,84,0.00,,CLR,0.00,VWS V14.00,2013-08-25 03:20:00,
2013-08-24 23:25:00,63.6,58.3,30.26,SE,140,0.0,0.0,83,0.00,,CLR,0.00,VWS V14.00,2013-08-25 03:25:00,
2013-08-24 23:30:00,63.4,58.2,30.25,SE,140,0.0,0.0,83,0.00,,CLR,0.00,VWS V14.00,2013-08-25 03:30:00,
2013-08-24 23:35:00,63.3,58.1,30.25,SE,140,0.0,0.0,83,0.00,,CLR,0.00,VWS V14.00,2013-08-25 03:35:00,
2013-08-24 23:40:00,63.1,58.2,30.25,SE,140,0.0,0.0,84,0.00,,CLR,0.00,VWS V14.00,2013-08-25 03:40:00,
2013-08-24 23:45:00,62.9,58.0,30.25,SE,140,0.0,0.0,84,0.00,,CLR,0.00,VWS V14.00,2013-08-25 03:45:00,
2013-08-24 23:50:00,62.6,57.7,30.25,SE,140,0.0,0.0,84,0.00,,CLR,0.00,VWS V14.00,2013-08-25 03:50:00,
2013-08-24 23:55:00,62.5,57.9,30.25,SE,140,0.0,0.0,85,0.00,,CLR,0.00,VWS V14.00,2013-08-25 03:55:00,